Time,TemperatureF,DewpointF,PressureIn,WindDirection,WindDirectionDegrees,WindSpeedMPH,WindSpeedGustMPH,Humidity,HourlyPrecipIn,Conditions,Clouds,dailyrainin,SoftwareType,DateUTC
2013-04-01 00:01:00,43.5,22.6,30.74,NNW,338,3.0,9.0,43,0.00,,,0.00,meteohub,2013-04-01 06:01:00,
2013-04-01 00:07:00,43.2,22.3,30.74,NNE,22,6.0,8.0,43,0.00,,,0.00,meteohub,2013-04-01 06:07:00,
2013-04-01 00:12:00,43.0,22.6,30.74,NNW,338,5.0,8.0,44,-99.99,,,0.00,meteohub,2013-04-01 06:12:00,
2013-04-01 00:17:00,42.8,23.0,30.74,NNW,338,6.0,8.0,45,-99.99,,,0.00,meteohub,2013-04-01 06:17:00,
2013-04-01 00:22:00,42.8,23.0,30.74,NNE,22,7.0,10.0,45,-99.99,,,0.00,meteohub,2013-04-01 06:22:00,
2013-04-01 00:27:00,42.4,22.6,30.74,NNE,22,3.0,10.0,45,-99.99,,,0.00,meteohub,2013-04-01 06:27:00,
2013-04-01 00:32:00,42.3,23.0,30.74,NNW,338,5.0,10.0,46,-99.99,,,0.00,meteohub,2013-04-01 06:32:00,
2013-04-01 00:37:00,41.2,23.5,30.74,NNE,22,4.0,8.0,49,-99.99,,,0.00,meteohub,2013-04-01 06:37:00,
2013-04-01 00:42:00,40.5,23.4,30.74,NNW,338,4.0,8.0,50,-99.99,,,0.00,meteohub,2013-04-01 06:42:00,
2013-04-01 00:47:00,40.5,23.7,30.74,NNE,22,3.0,6.0,51,-99.99,,,0.00,meteohub,2013-04-01 06:47:00,
2013-04-01 00:52:00,40.3,23.2,30.74,NNW,338,3.0,5.0,50,-99.99,,,0.00,meteohub,2013-04-01 06:52:00,
2013-04-01 00:57:00,39.4,22.8,30.74,NNW,338,2.0,5.0,51,-99.99,,,0.00,meteohub,2013-04-01 06:57:00,
2013-04-01 01:02:00,38.5,21.9,30.74,NNE,22,3.0,4.0,51,-99.99,,,0.00,meteohub,2013-04-01 07:02:00,
2013-04-01 01:07:00,37.9,22.8,30.74,NNE,22,3.0,3.0,54,-99.99,,,0.00,meteohub,2013-04-01 07:07:00,
2013-04-01 01:13:00,38.5,22.8,30.74,ENE,68,3.0,4.0,53,-99.99,,,0.00,meteohub,2013-04-01 07:13:00,
2013-04-01 01:18:00,38.7,23.0,30.74,NNE,22,2.0,4.0,53,-99.99,,,0.00,meteohub,2013-04-01 07:18:00,
2013-04-01 01:23:00,38.8,23.2,30.74,NNW,338,2.0,4.0,53,-99.99,,,0.00,meteohub,2013-04-01 07:23:00,
2013-04-01 01:28:00,39.2,23.2,30.74,NNE,22,0.0,4.0,52,-99.99,,,0.00,meteohub,2013-04-01 07:28:00,
2013-04-01 01:33:00,39.0,23.0,30.74,NE,45,2.0,6.0,52,-99.99,,,0.00,meteohub,2013-04-01 07:33:00,
2013-04-01 01:39:00,38.8,22.8,30.74,NNW,338,2.0,6.0,52,-99.99,,,0.00,meteohub,2013-04-01 07:39:00,
2013-04-01 01:44:00,38.5,22.5,30.74,NNW,338,3.0,6.0,52,-99.99,,,0.00,meteohub,2013-04-01 07:44:00,
2013-04-01 01:50:00,38.8,23.2,30.74,NNE,22,2.0,3.0,53,-99.99,,,0.00,meteohub,2013-04-01 07:50:00,
2013-04-01 01:55:00,38.7,23.0,30.74,ESE,112,2.0,7.0,53,-99.99,,,0.00,meteohub,2013-04-01 07:55:00,
2013-04-01 02:00:00,38.3,22.6,30.74,East,90,1.0,7.0,53,-99.99,,,0.00,meteohub,2013-04-01 08:00:00,
2013-04-01 02:05:00,37.9,22.5,30.74,WNW,292,1.0,4.0,53,-99.99,,,0.00,meteohub,2013-04-01 08:05:00,
2013-04-01 02:13:00,36.7,21.6,30.74,NNW,338,1.0,4.0,54,-99.99,,,0.00,meteohub,2013-04-01 08:13:00,
2013-04-01 02:19:00,36.0,21.0,30.74,NNE,22,2.0,4.0,54,-99.99,,,0.00,meteohub,2013-04-01 08:19:00,
2013-04-01 02:29:00,35.1,21.0,30.74,East,90,2.0,2.0,56,-99.99,,,0.00,meteohub,2013-04-01 08:29:00,
2013-04-01 03:03:00,33.1,22.3,30.74,WNW,292,0.0,2.0,64,-99.99,,,0.00,meteohub,2013-04-01 09:03:00,
2013-04-01 03:08:00,32.5,21.4,30.71,East,90,1.0,2.0,63,-99.99,,,0.00,meteohub,2013-04-01 09:08:00,
2013-04-01 03:13:00,33.1,23.4,30.71,SSE,158,2.0,3.0,67,-99.99,,,0.00,meteohub,2013-04-01 09:13:00,
2013-04-01 03:18:00,32.5,21.4,30.74,NNW,338,2.0,3.0,63,-99.99,,,0.00,meteohub,2013-04-01 09:18:00,
2013-04-01 03:23:00,32.4,22.6,30.74,ESE,112,2.0,3.0,67,-99.99,,,0.00,meteohub,2013-04-01 09:23:00,
2013-04-01 03:29:00,33.3,25.0,30.74,ENE,68,0.0,4.0,71,-99.99,,,0.00,meteohub,2013-04-01 09:29:00,
2013-04-01 03:34:00,33.1,24.1,30.71,ESE,112,3.0,6.0,69,-99.99,,,0.00,meteohub,2013-04-01 09:34:00,
2013-04-01 03:39:00,33.1,24.8,30.71,ESE,112,4.0,6.0,71,0.00,,,0.00,meteohub,2013-04-01 09:39:00,
2013-04-01 03:44:00,33.1,25.0,30.71,ESE,112,2.0,6.0,72,0.00,,,0.00,meteohub,2013-04-01 09:44:00,
2013-04-01 03:49:00,32.9,24.3,30.71,East,90,2.0,5.0,70,0.00,,,0.00,meteohub,2013-04-01 09:49:00,
2013-04-01 03:55:00,32.7,24.4,30.71,ESE,112,3.0,5.0,71,0.00,,,0.00,meteohub,2013-04-01 09:55:00,
2013-04-01 04:00:00,32.4,24.1,30.71,East,90,1.0,4.0,71,0.00,,,0.00,meteohub,2013-04-01 10:00:00,
2013-04-01 04:05:00,32.2,23.5,30.71,NNW,338,3.0,4.0,70,0.00,,,0.00,meteohub,2013-04-01 10:05:00,
2013-04-01 04:11:00,32.2,24.8,30.71,NNE,22,2.0,4.0,74,0.00,,,0.00,meteohub,2013-04-01 10:11:00,
2013-04-01 04:17:00,32.0,25.0,30.71,WSW,248,1.0,4.0,75,0.00,,,0.00,meteohub,2013-04-01 10:17:00,
2013-04-01 04:22:00,31.5,23.9,30.71,WNW,292,3.0,5.0,73,0.00,,,0.00,meteohub,2013-04-01 10:22:00,
2013-04-01 04:27:00,31.3,23.7,30.71,NNW,338,2.0,5.0,73,0.00,,,0.00,meteohub,2013-04-01 10:27:00,
2013-04-01 04:32:00,30.7,22.8,30.71,North,0,1.0,5.0,72,0.00,,,0.00,meteohub,2013-04-01 10:32:00,
2013-04-01 04:39:00,30.4,23.4,30.71,East,90,5.0,5.0,75,0.00,,,0.00,meteohub,2013-04-01 10:39:00,
2013-04-01 04:44:00,30.6,24.3,30.71,WNW,292,6.0,6.0,77,0.00,,,0.00,meteohub,2013-04-01 10:44:00,
2013-04-01 04:49:00,29.7,23.0,30.71,SSW,202,1.0,6.0,76,0.00,,,0.00,meteohub,2013-04-01 10:49:00,
2013-04-01 04:54:00,30.0,23.7,30.71,WSW,248,2.0,6.0,77,0.00,,,0.00,meteohub,2013-04-01 10:54:00,
2013-04-01 04:59:00,29.5,22.8,30.71,NNE,22,0.0,6.0,76,0.00,,,0.00,meteohub,2013-04-01 10:59:00,
2013-04-01 05:04:00,29.1,22.5,30.71,ESE,112,2.0,5.0,76,0.00,,,0.00,meteohub,2013-04-01 11:04:00,
2013-04-01 05:10:00,29.1,22.5,30.71,SE,135,3.0,5.0,76,0.00,,,0.00,meteohub,2013-04-01 11:10:00,
2013-04-01 05:15:00,29.1,22.8,30.71,SSE,158,1.0,3.0,77,0.00,,,0.00,meteohub,2013-04-01 11:15:00,
2013-04-01 05:20:00,28.8,22.8,30.71,ENE,68,2.0,3.0,78,0.00,,,0.00,meteohub,2013-04-01 11:20:00,
2013-04-01 05:25:00,28.6,22.6,30.71,East,90,0.0,4.0,78,0.00,,,0.00,meteohub,2013-04-01 11:25:00,
2013-04-01 05:30:00,28.2,22.3,30.71,NNW,338,1.0,4.0,78,0.00,,,0.00,meteohub,2013-04-01 11:30:00,
2013-04-01 05:35:00,27.9,21.6,30.71,NNW,338,2.0,4.0,77,0.00,,,0.00,meteohub,2013-04-01 11:35:00,
2013-04-01 05:41:00,27.5,21.6,30.71,ENE,68,0.0,3.0,78,0.00,,,0.00,meteohub,2013-04-01 11:41:00,
2013-04-01 05:46:00,27.1,21.2,30.71,ENE,68,1.0,2.0,78,0.00,,,0.00,meteohub,2013-04-01 11:46:00,
2013-04-01 05:51:00,27.0,21.4,30.71,South,180,0.0,2.0,79,0.00,,,0.00,meteohub,2013-04-01 11:51:00,
2013-04-01 05:56:00,26.6,21.0,30.71,South,180,0.0,1.0,79,0.00,,,0.00,meteohub,2013-04-01 11:56:00,
2013-04-01 06:02:00,26.8,21.2,30.71,ESE,112,2.0,2.0,79,0.00,,,0.00,meteohub,2013-04-01 12:02:00,
2013-04-01 06:07:00,27.0,21.4,30.71,NNW,338,1.0,4.0,79,0.00,,,0.00,meteohub,2013-04-01 12:07:00,
2013-04-01 06:12:00,27.0,21.6,30.71,NNW,338,1.0,4.0,80,0.00,,,0.00,meteohub,2013-04-01 12:12:00,
2013-04-01 06:17:00,26.6,21.2,30.71,NNW,338,1.0,4.0,80,0.00,,,0.00,meteohub,2013-04-01 12:17:00,
2013-04-01 06:22:00,26.6,21.9,30.71,NNW,338,3.0,3.0,82,0.00,,,0.00,meteohub,2013-04-01 12:22:00,
2013-04-01 06:27:00,26.2,21.7,30.71,NNW,338,0.0,3.0,83,0.00,,,0.00,meteohub,2013-04-01 12:27:00,
2013-04-01 06:33:00,26.1,21.0,30.71,NNW,338,0.0,3.0,81,0.00,,,0.00,meteohub,2013-04-01 12:33:00,
2013-04-01 06:38:00,25.5,20.3,30.71,NNW,338,1.0,3.0,80,0.00,,,0.00,meteohub,2013-04-01 12:38:00,
2013-04-01 06:43:00,25.3,20.1,30.71,NNE,22,2.0,2.0,80,0.00,,,0.00,meteohub,2013-04-01 12:43:00,
2013-04-01 06:48:00,25.3,20.1,30.71,NNE,22,0.0,2.0,80,0.00,,,0.00,meteohub,2013-04-01 12:48:00,
2013-04-01 06:54:00,25.3,20.3,30.71,East,90,0.0,2.0,81,0.00,,,0.00,meteohub,2013-04-01 12:54:00,
2013-04-01 06:59:00,25.3,20.3,30.71,East,90,0.0,2.0,81,0.00,,,0.00,meteohub,2013-04-01 12:59:00,
2013-04-01 07:05:00,25.3,20.3,30.68,NE,45,0.0,2.0,81,0.00,,,0.00,meteohub,2013-04-01 13:05:00,
2013-04-01 07:10:00,25.3,20.3,30.68,NE,45,0.0,0.0,81,0.00,,,0.00,meteohub,2013-04-01 13:10:00,
2013-04-01 07:15:00,25.7,20.5,30.68,NNE,22,1.0,2.0,80,0.00,,,0.00,meteohub,2013-04-01 13:15:00,
2013-04-01 07:20:00,25.7,20.7,30.71,NNE,22,1.0,2.0,81,0.00,,,0.00,meteohub,2013-04-01 13:20:00,
2013-04-01 07:25:00,25.9,20.8,30.71,NNE,22,2.0,2.0,81,0.00,,,0.00,meteohub,2013-04-01 13:25:00,
2013-04-01 07:31:00,26.2,21.7,30.71,ENE,68,0.0,2.0,83,0.00,,,0.00,meteohub,2013-04-01 13:31:00,
2013-04-01 07:36:00,26.4,21.9,30.71,NNW,338,3.0,3.0,83,0.00,,,0.00,meteohub,2013-04-01 13:36:00,
2013-04-01 07:41:00,27.5,24.1,30.71,NNW,338,3.0,4.0,87,0.00,,,0.00,meteohub,2013-04-01 13:41:00,
2013-04-01 07:47:00,27.9,24.8,30.71,NNE,22,4.0,4.0,88,0.00,,,0.00,meteohub,2013-04-01 13:47:00,
2013-04-01 07:52:00,28.2,24.8,30.71,NNW,338,4.0,5.0,87,0.00,,,0.00,meteohub,2013-04-01 13:52:00,
2013-04-01 07:57:00,28.6,24.6,30.71,NNW,338,3.0,5.0,85,0.00,,,0.00,meteohub,2013-04-01 13:57:00,
2013-04-01 08:02:00,29.8,25.9,30.71,NNW,338,3.0,5.0,85,0.00,,,0.00,meteohub,2013-04-01 14:02:00,
2013-04-01 08:07:00,31.6,25.9,30.71,NNW,338,4.0,5.0,79,0.00,,,0.00,meteohub,2013-04-01 14:07:00,
2013-04-01 08:13:00,33.3,25.9,30.71,NNW,338,4.0,6.0,74,0.00,,,0.00,meteohub,2013-04-01 14:13:00,
2013-04-01 08:18:00,34.0,25.3,30.71,NNW,338,3.0,6.0,70,0.00,,,0.00,meteohub,2013-04-01 14:18:00,
2013-04-01 08:23:00,35.1,25.2,30.71,NNW,338,6.0,6.0,67,0.00,,,0.00,meteohub,2013-04-01 14:23:00,
2013-04-01 08:29:00,35.4,24.8,30.71,NNW,338,4.0,6.0,65,0.00,,,0.00,meteohub,2013-04-01 14:29:00,
2013-04-01 08:34:00,36.0,25.0,30.71,NNE,22,5.0,6.0,64,0.00,,,0.00,meteohub,2013-04-01 14:34:00,
2013-04-01 08:39:00,36.9,25.5,30.71,NNW,338,6.0,6.0,63,0.00,,,0.00,meteohub,2013-04-01 14:39:00,
2013-04-01 08:44:00,37.0,24.8,30.71,NNW,338,5.0,6.0,61,0.00,,,0.00,meteohub,2013-04-01 14:44:00,
2013-04-01 08:49:00,37.4,24.8,30.71,NNW,338,6.0,6.0,60,0.00,,,0.00,meteohub,2013-04-01 14:49:00,
2013-04-01 08:55:00,37.8,25.2,30.71,NNW,338,5.0,7.0,60,0.00,,,0.00,meteohub,2013-04-01 14:55:00,
2013-04-01 09:00:00,38.8,25.3,30.71,NNW,338,3.0,7.0,58,0.00,,,0.00,meteohub,2013-04-01 15:00:00,
2013-04-01 09:05:00,39.9,25.9,30.68,NNW,338,5.0,6.0,57,0.00,,,0.00,meteohub,2013-04-01 15:05:00,
2013-04-01 09:10:00,40.5,26.1,30.68,NNE,22,4.0,6.0,56,0.00,,,0.00,meteohub,2013-04-01 15:10:00,
2013-04-01 09:15:00,41.2,26.2,30.68,NNW,338,5.0,6.0,55,0.00,,,0.00,meteohub,2013-04-01 15:15:00,
2013-04-01 09:21:00,43.0,27.5,30.68,NNE,22,0.0,6.0,54,0.00,,,0.00,meteohub,2013-04-01 15:21:00,
2013-04-01 09:26:00,43.0,27.1,30.68,NNW,338,4.0,6.0,53,0.00,,,0.00,meteohub,2013-04-01 15:26:00,
2013-04-01 09:32:00,44.6,28.6,30.68,ENE,68,3.0,6.0,53,0.00,,,0.00,meteohub,2013-04-01 15:32:00,
2013-04-01 09:37:00,45.1,28.6,30.71,South,180,1.0,6.0,52,0.00,,,0.00,meteohub,2013-04-01 15:37:00,
2013-04-01 09:42:00,44.6,28.0,30.71,WNW,292,2.0,5.0,52,0.00,,,0.00,meteohub,2013-04-01 15:42:00,
2013-04-01 09:47:00,44.1,27.1,30.71,ESE,112,3.0,5.0,51,0.00,,,0.00,meteohub,2013-04-01 15:47:00,
2013-04-01 09:53:00,46.6,29.5,30.71,ENE,68,4.0,6.0,51,0.00,,,0.00,meteohub,2013-04-01 15:53:00,
2013-04-01 09:58:00,46.6,28.9,30.71,NNE,22,4.0,6.0,50,0.00,,,0.00,meteohub,2013-04-01 15:58:00,
2013-04-01 10:03:00,46.2,28.6,30.71,SSW,202,2.0,6.0,50,0.00,,,0.00,meteohub,2013-04-01 16:03:00,
2013-04-01 10:08:00,46.0,28.4,30.71,WNW,292,3.0,6.0,50,0.00,,,0.00,meteohub,2013-04-01 16:08:00,
2013-04-01 10:13:00,44.8,27.3,30.71,ESE,112,5.0,6.0,50,0.00,,,0.00,meteohub,2013-04-01 16:13:00,
2013-04-01 10:18:00,45.5,28.0,30.71,ESE,112,4.0,8.0,50,0.00,,,0.00,meteohub,2013-04-01 16:18:00,
2013-04-01 10:24:00,47.1,28.9,30.71,ESE,112,3.0,8.0,49,0.00,,,0.00,meteohub,2013-04-01 16:24:00,
2013-04-01 10:29:00,47.1,28.9,30.71,NNW,338,2.0,6.0,49,0.00,,,0.00,meteohub,2013-04-01 16:29:00,
2013-04-01 10:34:00,46.8,28.2,30.71,NNW,338,3.0,6.0,48,0.00,,,0.00,meteohub,2013-04-01 16:34:00,
2013-04-01 10:39:00,46.0,28.0,30.71,NNW,338,8.0,8.0,49,0.00,,,0.00,meteohub,2013-04-01 16:39:00,
2013-04-01 10:44:00,43.2,25.3,30.71,NNW,338,6.0,8.0,49,0.00,,,0.00,meteohub,2013-04-01 16:44:00,
2013-04-01 10:50:00,43.3,26.1,30.71,NNW,338,4.0,8.0,50,0.00,,,0.00,meteohub,2013-04-01 16:50:00,
2013-04-01 10:55:00,42.4,25.7,30.71,NNW,338,6.0,13.0,51,0.00,,,0.00,meteohub,2013-04-01 16:55:00,
2013-04-01 11:00:00,42.1,25.7,30.71,WNW,292,6.0,11.0,52,0.00,,,0.00,meteohub,2013-04-01 17:00:00,
2013-04-01 11:05:00,41.9,25.5,30.74,NNW,338,6.0,11.0,52,0.00,,,0.00,meteohub,2013-04-01 17:05:00,
2013-04-01 11:11:00,41.7,25.5,30.74,NNW,338,8.0,11.0,52,0.00,,,0.00,meteohub,2013-04-01 17:11:00,
2013-04-01 11:16:00,41.9,26.1,30.74,NNW,338,4.0,8.0,53,0.00,,,0.00,meteohub,2013-04-01 17:16:00,
2013-04-01 11:21:00,42.3,26.4,30.71,WNW,292,8.0,9.0,53,0.00,,,0.00,meteohub,2013-04-01 17:21:00,
2013-04-01 11:26:00,42.6,26.2,30.71,NNW,338,4.0,9.0,52,0.00,,,0.00,meteohub,2013-04-01 17:26:00,
2013-04-01 11:32:00,42.8,26.4,30.71,WNW,292,2.0,8.0,52,0.00,,,0.00,meteohub,2013-04-01 17:32:00,
2013-04-01 11:37:00,43.3,26.4,30.71,NNE,22,5.0,10.0,51,0.00,,,0.00,meteohub,2013-04-01 17:37:00,
2013-04-01 11:42:00,44.6,27.7,30.71,NNW,338,6.0,10.0,51,0.00,,,0.00,meteohub,2013-04-01 17:42:00,
2013-04-01 11:47:00,44.2,27.3,30.71,ESE,112,1.0,10.0,51,0.00,,,0.00,meteohub,2013-04-01 17:47:00,
2013-04-01 11:52:00,45.3,27.9,30.71,NNW,338,3.0,10.0,50,0.00,,,0.00,meteohub,2013-04-01 17:52:00,
2013-04-01 11:57:00,45.9,28.4,30.71,WSW,248,3.0,10.0,50,0.00,,,0.00,meteohub,2013-04-01 17:57:00,
2013-04-01 12:02:00,45.5,28.0,30.71,ESE,112,4.0,6.0,50,0.00,,,0.00,meteohub,2013-04-01 18:02:00,
2013-04-01 12:07:00,45.7,28.2,30.71,NNW,338,3.0,7.0,50,0.00,,,0.00,meteohub,2013-04-01 18:07:00,
2013-04-01 12:12:00,45.3,27.9,30.71,NNW,338,5.0,7.0,50,0.00,,,0.00,meteohub,2013-04-01 18:12:00,
2013-04-01 12:18:00,43.7,26.2,30.71,NNE,22,9.0,9.0,50,0.00,,,0.00,meteohub,2013-04-01 18:18:00,
2013-04-01 12:23:00,44.6,27.1,30.71,South,180,3.0,6.0,50,0.00,,,0.00,meteohub,2013-04-01 18:23:00,
2013-04-01 12:28:00,45.3,27.9,30.71,ESE,112,3.0,9.0,50,-99.99,,,0.00,meteohub,2013-04-01 18:28:00,
2013-04-01 12:33:00,44.6,27.1,30.71,SSE,158,6.0,9.0,50,-99.99,,,0.00,meteohub,2013-04-01 18:33:00,
2013-04-01 12:38:00,44.8,27.3,30.71,WNW,292,3.0,6.0,50,-99.99,,,0.00,meteohub,2013-04-01 18:38:00,
2013-04-01 12:43:00,44.8,27.3,30.71,NNE,22,0.0,6.0,50,-99.99,,,0.00,meteohub,2013-04-01 18:43:00,
2013-04-01 12:48:00,45.1,27.7,30.71,SSE,158,3.0,6.0,50,-99.99,,,0.00,meteohub,2013-04-01 18:48:00,
2013-04-01 12:53:00,45.0,27.5,30.71,NW,315,1.0,6.0,50,0.00,,,0.00,meteohub,2013-04-01 18:53:00,
2013-04-01 12:58:00,45.3,27.9,30.71,SE,135,2.0,8.0,50,0.00,,,0.00,meteohub,2013-04-01 18:58:00,
2013-04-01 13:04:00,46.2,28.6,30.68,NNW,338,4.0,8.0,50,0.00,,,0.00,meteohub,2013-04-01 19:04:00,
2013-04-01 13:09:00,46.6,28.4,30.68,NNW,338,3.0,8.0,49,0.00,,,0.00,meteohub,2013-04-01 19:09:00,
2013-04-01 13:14:00,45.3,27.9,30.68,NNW,338,5.0,6.0,50,0.00,,,0.00,meteohub,2013-04-01 19:14:00,
2013-04-01 13:19:00,46.2,28.2,30.68,NNW,338,4.0,7.0,49,0.00,,,0.00,meteohub,2013-04-01 19:19:00,
2013-04-01 13:24:00,46.6,28.4,30.68,NNW,338,5.0,7.0,49,0.00,,,0.00,meteohub,2013-04-01 19:24:00,
2013-04-01 13:30:00,47.3,29.1,30.68,NNE,22,3.0,6.0,49,0.00,,,0.00,meteohub,2013-04-01 19:30:00,
2013-04-01 13:35:00,48.0,29.8,30.68,NNW,338,4.0,6.0,49,0.00,,,0.00,meteohub,2013-04-01 19:35:00,
2013-04-01 13:40:00,48.6,29.8,30.68,WNW,292,3.0,6.0,48,0.00,,,0.00,meteohub,2013-04-01 19:40:00,
2013-04-01 13:45:00,49.5,31.1,30.68,WNW,292,2.0,6.0,49,0.00,,,0.00,meteohub,2013-04-01 19:45:00,
2013-04-01 13:50:00,51.6,32.5,30.65,NNW,338,1.0,5.0,48,0.00,,,0.00,meteohub,2013-04-01 19:50:00,
2013-04-01 13:55:00,51.6,32.0,30.65,NNW,338,4.0,6.0,47,0.00,,,0.00,meteohub,2013-04-01 19:55:00,
2013-04-01 14:00:00,50.9,31.5,30.65,NNW,338,5.0,6.0,47,0.00,,,0.00,meteohub,2013-04-01 20:00:00,
2013-04-01 14:05:00,49.6,30.2,30.65,NNW,338,6.0,7.0,47,0.00,,,0.00,meteohub,2013-04-01 20:05:00,
2013-04-01 14:10:00,49.6,30.2,30.65,WNW,292,6.0,8.0,47,0.00,,,0.00,meteohub,2013-04-01 20:10:00,
2013-04-01 14:15:00,49.8,30.4,30.65,WNW,292,6.0,8.0,47,0.00,,,0.00,meteohub,2013-04-01 20:15:00,
2013-04-01 14:25:00,54.3,33.4,30.65,North,-999,-999.0,7.0,45,0.00,,,0.00,meteohub,2013-04-01 20:25:00,
2013-04-01 14:42:00,56.5,34.3,30.65,NNW,338,7.0,7.0,43,0.00,,,0.00,meteohub,2013-04-01 20:42:00,
2013-04-01 14:47:00,56.5,34.3,30.65,NNW,338,3.0,6.0,43,0.00,,,0.00,meteohub,2013-04-01 20:47:00,
2013-04-01 15:05:00,53.4,31.5,30.65,NNW,338,7.0,7.0,43,0.00,,,0.00,meteohub,2013-04-01 21:05:00,
2013-04-01 15:11:00,54.9,32.9,-100.00,NNW,338,6.0,10.0,43,0.00,,,0.00,meteohub,2013-04-01 21:11:00,
2013-04-01 15:16:00,54.5,32.5,30.65,NNW,338,8.0,10.0,43,-99.99,,,0.00,meteohub,2013-04-01 21:16:00,
2013-04-01 15:21:00,53.4,31.5,30.65,NNW,338,6.0,10.0,43,-99.99,,,0.00,meteohub,2013-04-01 21:21:00,
2013-04-01 15:26:00,55.2,32.5,30.65,WNW,292,5.0,9.0,42,-99.99,,,0.00,meteohub,2013-04-01 21:26:00,
2013-04-01 15:32:00,56.5,33.6,30.65,SSE,158,4.0,9.0,42,-99.99,,,0.00,meteohub,2013-04-01 21:32:00,
2013-04-01 15:37:00,55.6,32.4,30.65,NNW,338,1.0,7.0,41,0.00,,,0.00,meteohub,2013-04-01 21:37:00,
2013-04-01 15:42:00,54.5,32.0,30.65,NNW,338,8.0,8.0,42,0.00,,,0.00,meteohub,2013-04-01 21:42:00,
2013-04-01 15:47:00,52.7,30.9,30.65,NNW,338,7.0,8.0,43,0.00,,,0.00,meteohub,2013-04-01 21:47:00,
2013-04-01 15:52:00,52.3,30.6,30.65,South,180,3.0,11.0,43,0.00,,,0.00,meteohub,2013-04-01 21:52:00,
2013-04-01 15:57:00,56.7,33.8,30.65,SSE,158,3.0,11.0,42,0.00,,,0.00,meteohub,2013-04-01 21:57:00,
2013-04-01 16:02:00,56.8,34.0,30.65,WSW,248,4.0,9.0,42,0.00,,,0.00,meteohub,2013-04-01 22:02:00,
2013-04-01 16:08:00,56.7,33.3,30.65,SSW,202,3.0,9.0,41,0.00,,,0.00,meteohub,2013-04-01 22:08:00,
2013-04-01 16:13:00,54.5,32.0,30.65,WSW,248,4.0,10.0,42,0.00,,,0.00,meteohub,2013-04-01 22:13:00,
2013-04-01 16:18:00,52.5,30.7,30.65,WNW,292,3.0,10.0,43,0.00,,,0.00,meteohub,2013-04-01 22:18:00,
2013-04-01 16:23:00,52.2,30.4,30.65,ESE,112,5.0,10.0,43,0.00,,,0.00,meteohub,2013-04-01 22:23:00,
2013-04-01 16:28:00,52.0,30.7,30.65,ESE,112,4.0,8.0,44,0.00,,,0.00,meteohub,2013-04-01 22:28:00,
2013-04-01 16:34:00,52.7,31.5,30.65,ESE,112,3.0,7.0,44,0.00,,,0.00,meteohub,2013-04-01 22:34:00,
2013-04-01 16:39:00,52.0,30.7,30.65,SSE,158,10.0,10.0,44,0.00,,,0.00,meteohub,2013-04-01 22:39:00,
2013-04-01 16:44:00,51.1,30.0,30.65,SSW,202,4.0,9.0,44,0.00,,,0.00,meteohub,2013-04-01 22:44:00,
2013-04-01 16:49:00,51.1,30.6,30.65,SSE,158,5.0,10.0,45,0.00,,,0.00,meteohub,2013-04-01 22:49:00,
2013-04-01 16:54:00,50.9,30.4,30.65,SSE,158,6.0,10.0,45,0.00,,,0.00,meteohub,2013-04-01 22:54:00,
2013-04-01 16:59:00,50.7,30.2,30.65,WSW,248,3.0,9.0,45,0.00,,,0.00,meteohub,2013-04-01 22:59:00,
2013-04-01 17:04:00,49.8,29.8,30.65,SSW,202,6.0,7.0,46,0.00,,,0.00,meteohub,2013-04-01 23:04:00,
2013-04-01 17:09:00,49.8,29.8,30.65,ESE,112,6.0,7.0,46,0.00,,,0.00,meteohub,2013-04-01 23:09:00,
2013-04-01 17:15:00,49.6,29.7,30.65,SSE,158,3.0,6.0,46,0.00,,,0.00,meteohub,2013-04-01 23:15:00,
2013-04-01 17:20:00,49.5,30.0,30.68,North,0,2.0,9.0,47,0.00,,,0.00,meteohub,2013-04-01 23:20:00,
2013-04-01 17:25:00,49.3,30.0,30.68,SSW,202,3.0,9.0,47,0.00,,,0.00,meteohub,2013-04-01 23:25:00,
2013-04-01 17:31:00,49.1,29.8,30.68,ESE,112,4.0,9.0,47,0.00,,,0.00,meteohub,2013-04-01 23:31:00,
2013-04-01 17:36:00,48.9,29.7,30.65,SSW,202,5.0,6.0,47,0.00,,,0.00,meteohub,2013-04-01 23:36:00,
2013-04-01 17:42:00,48.4,29.7,30.65,NNE,22,4.0,7.0,48,0.00,,,0.00,meteohub,2013-04-01 23:42:00,
2013-04-01 17:47:00,48.0,29.3,30.65,ESE,112,3.0,7.0,48,0.00,,,0.00,meteohub,2013-04-01 23:47:00,
2013-04-01 17:52:00,48.0,29.3,30.65,WSW,248,0.0,7.0,48,0.00,,,0.00,meteohub,2013-04-01 23:52:00,
2013-04-01 17:57:00,47.7,28.9,30.65,SSE,158,3.0,6.0,48,0.00,,,0.00,meteohub,2013-04-01 23:57:00,
2013-04-01 18:02:00,47.5,28.8,30.65,ESE,112,4.0,7.0,48,0.00,,,0.00,meteohub,2013-04-02 00:02:00,
2013-04-01 18:07:00,47.3,29.1,30.65,ENE,68,2.0,7.0,49,0.00,,,0.00,meteohub,2013-04-02 00:07:00,
2013-04-01 18:13:00,46.9,28.8,30.65,SSW,202,9.0,10.0,49,0.00,,,0.00,meteohub,2013-04-02 00:13:00,
2013-04-01 18:18:00,46.9,28.8,30.65,SSE,158,2.0,10.0,49,0.00,,,0.00,meteohub,2013-04-02 00:18:00,
2013-04-01 18:23:00,46.6,28.9,30.65,SSW,202,4.0,10.0,50,0.00,,,0.00,meteohub,2013-04-02 00:23:00,
2013-04-01 18:28:00,46.2,29.1,30.65,SSW,202,3.0,9.0,51,0.00,,,0.00,meteohub,2013-04-02 00:28:00,
2013-04-01 18:33:00,46.2,29.1,30.65,SSW,202,3.0,12.0,51,0.00,,,0.00,meteohub,2013-04-02 00:33:00,
2013-04-01 18:38:00,46.0,28.9,30.65,SSW,202,8.0,12.0,51,0.00,,,0.00,meteohub,2013-04-02 00:38:00,
2013-04-01 18:43:00,45.5,28.4,30.65,SE,135,5.0,11.0,51,0.00,,,0.00,meteohub,2013-04-02 00:43:00,
2013-04-01 18:49:00,45.0,28.4,30.65,SE,135,2.0,10.0,52,0.00,,,0.00,meteohub,2013-04-02 00:49:00,
2013-04-01 18:54:00,44.6,28.0,30.62,SSW,202,6.0,10.0,52,0.00,,,0.00,meteohub,2013-04-02 00:54:00,
2013-04-01 18:59:00,43.9,27.5,30.62,SSW,202,4.0,8.0,52,0.00,,,0.00,meteohub,2013-04-02 00:59:00,
2013-04-01 19:04:00,43.5,27.5,30.65,ESE,112,6.0,10.0,53,0.00,,,0.00,meteohub,2013-04-02 01:04:00,
2013-04-01 19:10:00,43.2,27.1,30.65,SSE,158,6.0,10.0,53,0.00,,,0.00,meteohub,2013-04-02 01:10:00,
2013-04-01 19:15:00,42.8,27.9,30.65,SE,135,10.0,10.0,55,0.00,,,0.00,meteohub,2013-04-02 01:15:00,
2013-04-01 19:20:00,42.4,27.9,30.65,SSE,158,6.0,10.0,56,0.00,,,0.00,meteohub,2013-04-02 01:20:00,
2013-04-01 19:25:00,42.3,27.7,30.65,SSE,158,6.0,10.0,56,0.00,,,0.00,meteohub,2013-04-02 01:25:00,
2013-04-01 19:30:00,42.1,27.5,30.65,SSW,202,3.0,7.0,56,0.00,,,0.00,meteohub,2013-04-02 01:30:00,
2013-04-01 19:35:00,42.1,28.0,30.65,ESE,112,2.0,7.0,57,0.00,,,0.00,meteohub,2013-04-02 01:35:00,
2013-04-01 19:40:00,42.1,28.0,30.65,SSW,202,3.0,8.0,57,0.00,,,0.00,meteohub,2013-04-02 01:40:00,
2013-04-01 19:45:00,41.9,28.2,30.65,SSE,158,4.0,8.0,58,0.00,,,0.00,meteohub,2013-04-02 01:45:00,
2013-04-01 19:51:00,41.9,28.6,30.71,SSE,158,5.0,8.0,59,0.00,,,0.00,meteohub,2013-04-02 01:51:00,
2013-04-01 19:56:00,41.7,28.4,30.71,SSE,158,3.0,6.0,59,0.00,,,0.00,meteohub,2013-04-02 01:56:00,
2013-04-01 20:01:00,41.5,28.4,30.71,East,90,4.0,5.0,59,0.00,,,0.00,meteohub,2013-04-02 02:01:00,
2013-04-01 20:06:00,41.4,28.2,30.68,WSW,248,3.0,6.0,59,0.00,,,0.00,meteohub,2013-04-02 02:06:00,
2013-04-01 20:12:00,41.4,28.6,30.68,SW,225,2.0,6.0,60,0.00,,,0.00,meteohub,2013-04-02 02:12:00,
2013-04-01 20:17:00,41.0,28.6,30.68,WSW,248,1.0,6.0,61,0.00,,,0.00,meteohub,2013-04-02 02:17:00,
2013-04-01 20:22:00,40.6,29.5,30.71,SSW,202,4.0,7.0,64,0.00,,,0.00,meteohub,2013-04-02 02:22:00,
2013-04-01 20:27:00,39.9,29.5,30.71,East,90,3.0,7.0,66,0.00,,,0.00,meteohub,2013-04-02 02:27:00,
2013-04-01 20:32:00,38.8,31.3,30.71,WNW,292,3.0,6.0,74,0.00,,,0.00,meteohub,2013-04-02 02:32:00,
2013-04-01 20:37:00,38.7,30.0,30.71,SSW,202,3.0,6.0,71,0.00,,,0.00,meteohub,2013-04-02 02:37:00,
2013-04-01 20:42:00,38.1,29.8,30.71,NNW,338,0.0,6.0,72,0.00,,,0.00,meteohub,2013-04-02 02:42:00,
2013-04-01 20:47:00,38.1,30.9,30.71,WSW,248,2.0,6.0,75,0.00,,,0.00,meteohub,2013-04-02 02:47:00,
2013-04-01 20:52:00,37.9,30.4,30.71,NNW,338,3.0,3.0,74,0.00,,,0.00,meteohub,2013-04-02 02:52:00,
2013-04-01 20:57:00,37.9,31.1,30.71,SSW,202,2.0,3.0,76,0.00,,,0.00,meteohub,2013-04-02 02:57:00,
2013-04-01 21:02:00,37.9,31.5,30.71,WNW,292,2.0,4.0,77,0.00,,,0.00,meteohub,2013-04-02 03:02:00,
2013-04-01 21:07:00,37.9,32.0,30.71,NNW,338,2.0,4.0,79,0.00,,,0.00,meteohub,2013-04-02 03:07:00,
2013-04-01 21:12:00,37.9,31.5,30.71,SSW,202,0.0,4.0,77,0.00,,,0.00,meteohub,2013-04-02 03:12:00,
2013-04-01 21:17:00,37.9,32.0,30.71,North,0,2.0,4.0,79,0.00,,,0.00,meteohub,2013-04-02 03:17:00,
2013-04-01 21:23:00,37.8,32.7,30.71,NNW,338,3.0,4.0,82,0.00,,,0.00,meteohub,2013-04-02 03:23:00,
2013-04-01 21:28:00,37.8,33.1,30.71,NNW,338,2.0,7.0,83,0.00,,,0.00,meteohub,2013-04-02 03:28:00,
2013-04-01 21:33:00,37.8,32.7,30.71,NNW,338,3.0,7.0,82,0.00,,,0.00,meteohub,2013-04-02 03:33:00,
2013-04-01 21:39:00,37.8,33.1,30.71,NNW,338,3.0,7.0,83,0.00,,,0.00,meteohub,2013-04-02 03:39:00,
2013-04-01 21:44:00,37.6,32.9,30.71,NNE,22,4.0,5.0,83,0.00,,,0.00,meteohub,2013-04-02 03:44:00,
2013-04-01 21:49:00,37.6,32.5,30.71,NNE,22,2.0,5.0,82,0.00,,,0.00,meteohub,2013-04-02 03:49:00,
2013-04-01 21:55:00,37.6,33.3,30.71,NNW,338,4.0,5.0,84,0.00,,,0.00,meteohub,2013-04-02 03:55:00,
2013-04-01 22:00:00,37.4,33.1,30.71,NNE,22,3.0,4.0,84,0.00,,,0.00,meteohub,2013-04-02 04:00:00,
2013-04-01 22:01:00,37.4,33.1,30.71,NNW,338,4.0,4.0,84,0.00,,,0.00,meteohub,2013-04-02 04:01:00,
2013-04-01 22:02:00,37.4,33.1,30.71,NNW,338,3.0,4.0,84,0.00,,,0.00,meteohub,2013-04-02 04:02:00,
2013-04-01 22:07:00,37.4,33.1,30.71,NNE,22,4.0,4.0,84,0.00,,,0.00,meteohub,2013-04-02 04:07:00,
2013-04-01 22:13:00,37.4,33.3,30.71,NNE,22,4.0,4.0,85,0.00,,,0.00,meteohub,2013-04-02 04:13:00,
2013-04-01 22:18:00,37.4,34.0,30.71,NNW,338,4.0,6.0,87,0.00,,,0.00,meteohub,2013-04-02 04:18:00,
2013-04-01 22:23:00,37.4,34.5,30.71,NNW,338,5.0,6.0,89,0.00,,,0.00,meteohub,2013-04-02 04:23:00,
2013-04-01 22:28:00,37.2,34.9,30.71,NNW,338,4.0,6.0,91,0.00,,,0.00,meteohub,2013-04-02 04:28:00,
2013-04-01 22:34:00,37.0,34.7,30.71,NNW,338,5.0,6.0,91,0.00,,,0.00,meteohub,2013-04-02 04:34:00,
2013-04-01 22:39:00,37.0,34.7,30.71,NNW,338,7.0,7.0,91,0.00,,,0.00,meteohub,2013-04-02 04:39:00,
2013-04-01 22:44:00,36.9,34.5,30.71,NNW,338,6.0,6.0,91,0.00,,,0.00,meteohub,2013-04-02 04:44:00,
2013-04-01 22:50:00,36.7,34.3,30.71,NNE,22,6.0,7.0,91,0.00,,,0.00,meteohub,2013-04-02 04:50:00,
2013-04-01 22:55:00,36.7,34.3,30.71,North,0,6.0,6.0,91,0.00,,,0.00,meteohub,2013-04-02 04:55:00,
2013-04-01 23:00:00,36.7,34.5,30.71,NNW,338,5.0,6.0,92,0.00,,,0.00,meteohub,2013-04-02 05:00:00,
2013-04-01 23:05:00,36.5,34.2,30.71,NNW,338,4.0,6.0,91,0.00,,,0.00,meteohub,2013-04-02 05:05:00,
2013-04-01 23:10:00,36.5,34.2,30.71,NNW,338,4.0,6.0,91,0.00,,,0.00,meteohub,2013-04-02 05:10:00,
2013-04-01 23:15:00,36.3,33.4,30.71,NNW,338,6.0,7.0,89,0.00,,,0.00,meteohub,2013-04-02 05:15:00,
2013-04-01 23:21:00,36.3,33.6,30.68,NNW,338,6.0,9.0,90,0.00,,,0.00,meteohub,2013-04-02 05:21:00,
2013-04-01 23:26:00,36.3,34.0,30.68,NNE,22,6.0,9.0,91,0.00,,,0.00,meteohub,2013-04-02 05:26:00,
2013-04-01 23:31:00,36.1,33.8,30.68,NNW,338,6.0,9.0,91,0.00,,,0.00,meteohub,2013-04-02 05:31:00,
2013-04-01 23:37:00,36.1,33.8,30.68,NNW,338,6.0,7.0,91,0.00,,,0.00,meteohub,2013-04-02 05:37:00,
2013-04-01 23:42:00,36.1,33.8,30.68,NNE,22,5.0,7.0,91,0.00,,,0.00,meteohub,2013-04-02 05:42:00,
2013-04-01 23:47:00,36.1,33.8,30.68,NNW,338,4.0,7.0,91,0.00,,,0.00,meteohub,2013-04-02 05:47:00,
2013-04-01 23:52:00,36.0,33.8,30.68,NNW,338,4.0,7.0,92,0.00,,,0.00,meteohub,2013-04-02 05:52:00,
2013-04-01 23:57:00,36.0,33.8,30.68,NNE,22,6.0,6.0,92,0.00,,,0.00,meteohub,2013-04-02 05:57:00,